createdAt,value
2022-12-11T00:00:23.075Z,-1.86
2022-12-11T00:01:23.048Z,-1.78
2022-12-11T00:02:23.060Z,-1.83
2022-12-11T00:03:23.121Z,-1.92
2022-12-11T00:04:23.019Z,-1.95
2022-12-11T00:05:23.000Z,-1.89
2022-12-11T00:06:22.989Z,-1.90
2022-12-11T00:07:22.975Z,-1.96
2022-12-11T00:08:23.009Z,-1.83
2022-12-11T00:09:22.984Z,-1.88
2022-12-11T00:10:22.940Z,-1.86
2022-12-11T00:11:22.927Z,-1.96
2022-12-11T00:12:22.914Z,-1.90
2022-12-11T00:13:22.916Z,-1.92
2022-12-11T00:14:22.890Z,-1.86
2022-12-11T00:15:22.869Z,-1.95
2022-12-11T00:16:26.940Z,-1.96
2022-12-11T00:17:22.841Z,-1.93
2022-12-11T00:18:22.830Z,-2.06
2022-12-11T00:19:22.816Z,-1.90
2022-12-11T00:20:22.805Z,-2.04
2022-12-11T00:21:22.789Z,-2.06
2022-12-11T00:22:22.774Z,-2.13
2022-12-11T00:23:22.763Z,-2.01
2022-12-11T00:24:22.755Z,-2.26
2022-12-11T00:25:22.773Z,-2.13
2022-12-11T00:26:22.730Z,-2.07
2022-12-11T00:27:22.715Z,-2.10
2022-12-11T00:28:22.701Z,-2.19
2022-12-11T00:29:22.692Z,-2.08
2022-12-11T00:30:22.697Z,-2.06
2022-12-11T00:31:22.758Z,-1.98
2022-12-11T00:32:22.649Z,-2.11
2022-12-11T00:33:22.636Z,-1.98
2022-12-11T00:34:22.621Z,-2.11
2022-12-11T00:35:22.608Z,-2.07
2022-12-11T00:36:22.594Z,-2.13
2022-12-11T00:37:22.634Z,-2.16
2022-12-11T00:38:22.565Z,-2.14
2022-12-11T00:39:22.557Z,-2.10
2022-12-11T00:40:22.538Z,-2.16
2022-12-11T00:41:22.551Z,-2.24
2022-12-11T00:42:22.518Z,-2.13
2022-12-11T00:43:22.511Z,-2.16
2022-12-11T00:44:22.496Z,-2.06
2022-12-11T00:45:22.476Z,-2.16
2022-12-11T00:46:22.507Z,-2.26
2022-12-11T00:47:22.452Z,-2.18
2022-12-11T00:48:22.433Z,-2.18
2022-12-11T00:49:22.426Z,-2.16
2022-12-11T00:50:22.611Z,-2.25
2022-12-11T00:51:22.394Z,-2.33
2022-12-11T00:52:22.382Z,-2.35
2022-12-11T00:53:22.371Z,-2.25
2022-12-11T00:54:22.375Z,-2.37
2022-12-11T00:55:22.345Z,-2.33
2022-12-11T00:56:22.331Z,-2.51
2022-12-11T00:57:22.351Z,-2.44
2022-12-11T00:58:22.304Z,-2.33
2022-12-11T00:59:22.292Z,-2.28
2022-12-11T01:00:22.288Z,-2.33
2022-12-11T01:01:22.393Z,-2.28
2022-12-11T01:02:22.324Z,-2.41
2022-12-11T01:03:22.242Z,-2.29
2022-12-11T01:04:22.229Z,-2.35
2022-12-11T01:05:22.210Z,-2.25
2022-12-11T01:06:22.199Z,-2.24
2022-12-11T01:07:22.189Z,-2.35
2022-12-11T01:08:22.195Z,-2.33
2022-12-11T01:09:22.164Z,-2.33
2022-12-11T01:10:22.206Z,-2.44
2022-12-11T01:11:22.134Z,-2.41
2022-12-11T01:12:22.125Z,-2.40
2022-12-11T01:13:22.135Z,-2.50
2022-12-11T01:14:22.089Z,-2.53
2022-12-11T01:15:22.074Z,-2.59
2022-12-11T01:16:22.123Z,-2.51
2022-12-11T01:17:22.056Z,-2.61
2022-12-11T01:18:22.037Z,-2.59
2022-12-11T01:19:22.025Z,-2.53
2022-12-11T01:20:22.016Z,-2.58
2022-12-11T01:21:22.001Z,-2.64
2022-12-11T01:22:21.988Z,-2.61
2022-12-11T01:23:21.975Z,-2.68
2022-12-11T01:24:21.957Z,-2.64
2022-12-11T01:25:21.944Z,-2.71
2022-12-11T01:26:21.938Z,-2.65
2022-12-11T01:27:21.932Z,-2.71
2022-12-11T01:28:21.902Z,-2.74
2022-12-11T01:29:21.909Z,-2.58
2022-12-11T01:30:21.880Z,-2.59
2022-12-11T01:31:21.862Z,-2.58
2022-12-11T01:32:21.860Z,-2.53
2022-12-11T01:33:21.855Z,-2.47
2022-12-11T01:34:21.850Z,-2.46
2022-12-11T01:35:21.820Z,-2.48
2022-12-11T01:36:21.793Z,-2.26
2022-12-11T01:37:21.790Z,-2.40
2022-12-11T01:38:21.774Z,-2.41
2022-12-11T01:39:21.759Z,-2.33
2022-12-11T01:40:21.744Z,-2.38
2022-12-11T01:41:21.737Z,-2.29
2022-12-11T01:42:21.724Z,-2.26
2022-12-11T01:43:21.706Z,-2.16
2022-12-11T01:44:21.694Z,-2.10
2022-12-11T01:45:23.084Z,-2.16
2022-12-11T01:46:21.697Z,-2.22
2022-12-11T01:47:21.646Z,-2.11
2022-12-11T01:48:21.635Z,-2.06
2022-12-11T01:49:21.620Z,-2.06
2022-12-11T01:50:21.601Z,-2.01
2022-12-11T01:51:21.596Z,-2.00
2022-12-11T01:52:21.585Z,-1.88
2022-12-11T01:53:21.574Z,-1.95
2022-12-11T01:54:21.560Z,-2.07
2022-12-11T01:55:21.548Z,-2.00
2022-12-11T01:56:21.534Z,-1.86
2022-12-11T01:57:21.523Z,-1.96
2022-12-11T01:58:21.505Z,-1.96
2022-12-11T01:59:21.526Z,-1.90
2022-12-11T02:00:21.487Z,-1.95
2022-12-11T02:01:21.561Z,-1.88
2022-12-11T02:02:21.525Z,-2.01
2022-12-11T02:03:21.446Z,-1.89
2022-12-11T02:04:21.426Z,-1.95
2022-12-11T02:05:21.413Z,-1.92
2022-12-11T02:06:21.399Z,-1.83
2022-12-11T02:07:21.393Z,-1.90
2022-12-11T02:08:21.445Z,-1.80
2022-12-11T02:09:21.362Z,-1.88
2022-12-11T02:10:21.347Z,-1.86
2022-12-11T02:11:21.331Z,-1.83
2022-12-11T02:12:21.316Z,-1.77
2022-12-11T02:13:21.312Z,-1.77
2022-12-11T02:14:21.292Z,-1.89
2022-12-11T02:15:21.283Z,-1.82
2022-12-11T02:16:21.369Z,-1.88
2022-12-11T02:17:21.279Z,-1.86
2022-12-11T02:18:21.246Z,-1.78
2022-12-11T02:19:21.231Z,-1.85
2022-12-11T02:20:21.227Z,-1.90
2022-12-11T02:21:21.211Z,-1.72
2022-12-11T02:22:21.195Z,-1.74
2022-12-11T02:23:21.182Z,-1.74
2022-12-11T02:24:21.169Z,-1.71
2022-12-11T02:25:21.158Z,-1.68
2022-12-11T02:26:21.144Z,-1.78
2022-12-11T02:27:21.129Z,-1.83
2022-12-11T02:28:21.116Z,-1.74
2022-12-11T02:29:21.103Z,-1.62
2022-12-11T02:30:21.091Z,-1.78
2022-12-11T02:31:21.128Z,-1.64
2022-12-11T02:32:21.059Z,-1.67
2022-12-11T02:33:21.069Z,-1.62
2022-12-11T02:34:21.032Z,-1.67
2022-12-11T02:35:21.023Z,-1.54
2022-12-11T02:36:21.002Z,-1.61
2022-12-11T02:37:20.998Z,-1.61
2022-12-11T02:38:20.984Z,-1.65
2022-12-11T02:39:20.968Z,-1.65
2022-12-11T02:40:20.953Z,-1.64
2022-12-11T02:41:20.944Z,-1.57
2022-12-11T02:42:20.931Z,-1.64
2022-12-11T02:43:20.920Z,-1.62
2022-12-11T02:44:20.904Z,-1.61
2022-12-11T02:45:20.894Z,-1.71
2022-12-11T02:46:20.880Z,-1.62
2022-12-11T02:47:20.869Z,-1.67
2022-12-11T02:48:20.850Z,-1.53
2022-12-11T02:49:20.860Z,-1.59
2022-12-11T02:50:20.822Z,-1.67
2022-12-11T02:51:20.810Z,-1.65
2022-12-11T02:52:20.797Z,-1.59
2022-12-11T02:53:20.817Z,-1.67
2022-12-11T02:54:20.773Z,-1.49
2022-12-11T02:55:20.756Z,-1.51
2022-12-11T02:56:20.743Z,-1.56
2022-12-11T02:57:20.741Z,-1.50
2022-12-11T02:58:20.718Z,-1.56
2022-12-11T02:59:20.710Z,-1.56
2022-12-11T03:00:20.694Z,-1.54
2022-12-11T03:01:20.722Z,-1.56
2022-12-11T03:02:20.702Z,-1.65
2022-12-11T03:03:20.653Z,-1.61
2022-12-11T03:04:20.636Z,-1.65
2022-12-11T03:05:20.653Z,-1.56
2022-12-11T03:06:20.617Z,-1.53
2022-12-11T03:07:20.608Z,-1.57
2022-12-11T03:08:20.631Z,-1.61
2022-12-11T03:09:20.579Z,-1.49
2022-12-11T03:10:20.568Z,-1.46
2022-12-11T03:11:20.554Z,-1.54
2022-12-11T03:12:20.543Z,-1.62
2022-12-11T03:13:20.525Z,-1.68
2022-12-11T03:14:20.504Z,-1.53
2022-12-11T03:15:20.494Z,-1.50
2022-12-11T03:16:20.531Z,-1.57
2022-12-11T03:17:20.472Z,-1.56
2022-12-11T03:18:20.465Z,-1.57
2022-12-11T03:19:20.651Z,-1.50
2022-12-11T03:20:20.432Z,-1.41
2022-12-11T03:21:20.445Z,-1.53
2022-12-11T03:22:20.500Z,-1.50
2022-12-11T03:23:20.398Z,-1.47
2022-12-11T03:24:20.378Z,-1.57
2022-12-11T03:25:20.371Z,-1.51
2022-12-11T03:26:20.355Z,-1.44
2022-12-11T03:27:20.345Z,-1.53
2022-12-11T03:28:20.336Z,-1.61
2022-12-11T03:29:20.315Z,-1.59
2022-12-11T03:30:20.303Z,-1.82
2022-12-11T03:31:20.282Z,-1.61
2022-12-11T03:32:20.271Z,-1.72
2022-12-11T03:33:20.268Z,-1.75
2022-12-11T03:34:20.250Z,-1.85
2022-12-11T03:35:20.241Z,-1.80
2022-12-11T03:36:20.227Z,-1.90
2022-12-11T03:37:20.230Z,-1.89
2022-12-11T03:38:20.197Z,-2.01
2022-12-11T03:39:20.184Z,-1.98
2022-12-11T03:40:20.170Z,-2.06
2022-12-11T03:41:20.154Z,-2.06
2022-12-11T03:42:20.142Z,-2.11
2022-12-11T03:43:20.134Z,-2.14
2022-12-11T03:44:20.115Z,-2.18
2022-12-11T03:45:20.112Z,-2.32
2022-12-11T03:46:20.132Z,-2.37
2022-12-11T03:47:20.082Z,-2.22
2022-12-11T03:48:20.068Z,-2.19
2022-12-11T03:49:20.059Z,-2.37
2022-12-11T03:50:20.056Z,-2.32
2022-12-11T03:51:20.037Z,-2.28
2022-12-11T03:52:20.013Z,-2.25
2022-12-11T03:53:20.028Z,-2.33
2022-12-11T03:54:19.987Z,-2.26
2022-12-11T03:55:19.977Z,-2.43
2022-12-11T03:56:19.966Z,-2.41
2022-12-11T03:57:19.952Z,-2.46
2022-12-11T03:58:19.933Z,-2.43
2022-12-11T03:59:19.922Z,-2.53
2022-12-11T04:00:19.910Z,-2.41
2022-12-11T04:01:19.994Z,-2.46
2022-12-11T04:02:19.886Z,-2.46
2022-12-11T04:03:19.870Z,-2.46
2022-12-11T04:04:19.892Z,-2.50
2022-12-11T04:05:19.845Z,-2.46
2022-12-11T04:06:19.833Z,-2.50
2022-12-11T04:07:19.814Z,-2.50
2022-12-11T04:08:19.908Z,-2.50
2022-12-11T04:09:19.815Z,-2.50
2022-12-11T04:10:19.778Z,-2.48
2022-12-11T04:11:19.763Z,-2.46
2022-12-11T04:12:19.755Z,-2.55
2022-12-11T04:13:19.740Z,-2.68
2022-12-11T04:14:19.723Z,-2.69
2022-12-11T04:15:19.712Z,-2.66
2022-12-11T04:16:19.717Z,-2.71
2022-12-11T04:17:19.684Z,-2.65
2022-12-11T04:18:19.666Z,-2.74
2022-12-11T04:19:19.657Z,-2.58
2022-12-11T04:20:19.641Z,-2.64
2022-12-11T04:21:19.627Z,-2.74
2022-12-11T04:22:19.611Z,-2.65
2022-12-11T04:23:19.599Z,-2.72
2022-12-11T04:24:19.590Z,-2.65
2022-12-11T04:25:19.608Z,-2.71
2022-12-11T04:26:19.569Z,-2.72
2022-12-11T04:27:19.555Z,-2.77
2022-12-11T04:28:19.537Z,-2.71
2022-12-11T04:29:19.525Z,-2.69
2022-12-11T04:30:19.511Z,-2.58
2022-12-11T04:31:19.570Z,-2.64
2022-12-11T04:32:19.482Z,-2.74
2022-12-11T04:33:19.467Z,-2.72
2022-12-11T04:34:19.452Z,-2.84
2022-12-11T04:35:19.442Z,-2.83
2022-12-11T04:36:19.425Z,-2.77
2022-12-11T04:37:19.418Z,-2.89
2022-12-11T04:38:19.407Z,-2.89
2022-12-11T04:39:19.393Z,-2.90
2022-12-11T04:40:19.375Z,-2.95
2022-12-11T04:41:19.401Z,-2.95
2022-12-11T04:42:19.354Z,-2.95
2022-12-11T04:43:19.345Z,-2.93
2022-12-11T04:44:19.338Z,-2.98
2022-12-11T04:45:19.318Z,-2.97
2022-12-11T04:46:19.371Z,-2.89
2022-12-11T04:47:19.287Z,-2.90
2022-12-11T04:48:19.274Z,-2.89
2022-12-11T04:49:19.268Z,-2.74
2022-12-11T04:50:19.256Z,-2.79
2022-12-11T04:51:19.241Z,-2.71
2022-12-11T04:52:19.227Z,-2.74
2022-12-11T04:53:19.218Z,-2.77
2022-12-11T04:54:19.205Z,-2.80
2022-12-11T04:55:19.196Z,-2.83
2022-12-11T04:56:19.175Z,-2.83
2022-12-11T04:57:19.180Z,-2.76
2022-12-11T04:58:19.144Z,-2.72
2022-12-11T04:59:19.135Z,-2.64
2022-12-11T05:00:19.130Z,-2.65
2022-12-11T05:01:19.290Z,-2.59
2022-12-11T05:02:19.094Z,-2.56
2022-12-11T05:03:19.082Z,-2.61
2022-12-11T05:04:19.068Z,-2.64
2022-12-11T05:05:19.064Z,-2.50
2022-12-11T05:06:19.048Z,-2.50
2022-12-11T05:07:19.035Z,-2.37
2022-12-11T05:08:19.074Z,-2.38
2022-12-11T05:09:19.011Z,-2.33
2022-12-11T05:10:18.992Z,-2.26
2022-12-11T05:11:18.984Z,-2.38
2022-12-11T05:12:18.971Z,-2.38
2022-12-11T05:13:18.967Z,-2.41
2022-12-11T05:14:18.935Z,-2.44
2022-12-11T05:15:18.922Z,-2.32
2022-12-11T05:16:19.033Z,-2.38
2022-12-11T05:17:18.897Z,-2.33
2022-12-11T05:18:18.889Z,-2.28
2022-12-11T05:19:18.874Z,-2.35
2022-12-11T05:20:18.864Z,-2.28
2022-12-11T05:21:18.840Z,-2.40
2022-12-11T05:22:18.833Z,-2.32
2022-12-11T05:23:18.814Z,-2.29
2022-12-11T05:24:18.803Z,-2.14
2022-12-11T05:25:18.785Z,-2.25
2022-12-11T05:26:18.780Z,-2.33
2022-12-11T05:27:18.760Z,-2.29
2022-12-11T05:28:18.750Z,-2.44
2022-12-11T05:29:18.758Z,-2.37
2022-12-11T05:30:18.727Z,-2.38
2022-12-11T05:31:18.734Z,-2.33
2022-12-11T05:32:18.698Z,-2.43
2022-12-11T05:33:18.686Z,-2.38
2022-12-11T05:34:18.673Z,-2.37
2022-12-11T05:35:18.662Z,-2.33
2022-12-11T05:36:18.641Z,-2.28
2022-12-11T05:37:18.633Z,-2.37
2022-12-11T05:38:18.616Z,-2.35
2022-12-11T05:39:18.604Z,-2.25
2022-12-11T05:40:18.602Z,-2.25
2022-12-11T05:41:18.582Z,-2.21
2022-12-11T05:42:18.563Z,-2.25
2022-12-11T05:43:18.548Z,-2.21
2022-12-11T05:44:18.538Z,-2.35
2022-12-11T05:45:18.544Z,-2.32
2022-12-11T05:46:18.549Z,-2.33
2022-12-11T05:47:18.498Z,-2.37
2022-12-11T05:48:18.487Z,-2.37
2022-12-11T05:49:20.020Z,-2.50
2022-12-11T05:50:18.456Z,-2.35
2022-12-11T05:51:18.441Z,-2.32
2022-12-11T05:52:18.435Z,-2.32
2022-12-11T05:53:18.412Z,-2.47
2022-12-11T05:54:18.404Z,-2.41
2022-12-11T05:55:18.389Z,-2.41
2022-12-11T05:56:18.380Z,-2.50
2022-12-11T05:57:18.357Z,-2.37
2022-12-11T05:58:18.351Z,-2.44
2022-12-11T05:59:18.332Z,-2.37
2022-12-11T06:00:18.315Z,-2.28
2022-12-11T06:01:18.329Z,-2.32
2022-12-11T06:02:18.401Z,-2.44
2022-12-11T06:03:18.324Z,-2.46
2022-12-11T06:04:18.270Z,-2.33
2022-12-11T06:05:18.256Z,-2.37
2022-12-11T06:06:18.243Z,-2.51
2022-12-11T06:07:18.232Z,-2.37
2022-12-11T06:08:18.340Z,-2.51
2022-12-11T06:09:18.199Z,-2.35
2022-12-11T06:10:18.187Z,-2.50
2022-12-11T06:11:23.581Z,-2.62
2022-12-11T06:12:18.160Z,-2.59
2022-12-11T06:13:18.154Z,-2.61
2022-12-11T06:14:18.139Z,-2.47
2022-12-11T06:15:18.120Z,-2.56
2022-12-11T06:16:18.187Z,-2.68
2022-12-11T06:17:18.119Z,-2.68
2022-12-11T06:18:18.082Z,-2.72
2022-12-11T06:19:18.066Z,-2.72
2022-12-11T06:20:18.053Z,-2.72
2022-12-11T06:21:18.042Z,-2.76
2022-12-11T06:22:18.033Z,-2.76
2022-12-11T06:23:18.018Z,-2.87
2022-12-11T06:24:18.008Z,-2.89
2022-12-11T06:25:17.995Z,-3.00
2022-12-11T06:26:17.983Z,-3.01
2022-12-11T06:27:17.965Z,-3.02
2022-12-11T06:28:17.954Z,-3.04
2022-12-11T06:29:17.936Z,-3.18
2022-12-11T06:30:17.924Z,-2.98
2022-12-11T06:31:17.962Z,-3.05
2022-12-11T06:32:17.903Z,-3.15
2022-12-11T06:33:17.909Z,-3.13
2022-12-11T06:34:17.882Z,-3.28
2022-12-11T06:35:17.865Z,-3.19
2022-12-11T06:36:17.851Z,-3.18
2022-12-11T06:37:17.831Z,-3.16
2022-12-11T06:38:17.825Z,-3.08
2022-12-11T06:39:17.812Z,-3.15
2022-12-11T06:40:17.801Z,-3.15
2022-12-11T06:41:17.787Z,-3.13
2022-12-11T06:42:17.779Z,-3.21
2022-12-11T06:43:17.761Z,-3.18
2022-12-11T06:44:17.749Z,-3.13
2022-12-11T06:45:17.729Z,-3.19
2022-12-11T06:46:17.801Z,-3.15
2022-12-11T06:47:17.705Z,-3.23
2022-12-11T06:48:17.697Z,-3.23
2022-12-11T06:49:17.709Z,-3.15
2022-12-11T06:50:17.672Z,-3.18
2022-12-11T06:51:17.657Z,-3.26
2022-12-11T06:52:18.658Z,-3.28
2022-12-11T06:53:17.636Z,-3.26
2022-12-11T06:54:17.625Z,-3.36
2022-12-11T06:55:17.608Z,-3.28
2022-12-11T06:56:17.606Z,-3.39
2022-12-11T06:57:17.579Z,-3.19
2022-12-11T06:58:17.566Z,-3.23
2022-12-11T06:59:17.552Z,-3.19
2022-12-11T07:00:17.538Z,-3.22
2022-12-11T07:01:17.564Z,-3.28
2022-12-11T07:02:17.547Z,-3.25
2022-12-11T07:03:17.501Z,-3.16
2022-12-11T07:04:17.493Z,-3.37
2022-12-11T07:05:17.505Z,-3.36
2022-12-11T07:06:17.466Z,-3.33
2022-12-11T07:07:17.455Z,-3.28
2022-12-11T07:08:17.579Z,-3.30
2022-12-11T07:09:17.429Z,-3.37
2022-12-11T07:10:17.420Z,-3.36
2022-12-11T07:11:17.630Z,-3.36
2022-12-11T07:12:17.392Z,-3.41
2022-12-11T07:13:17.371Z,-3.36
2022-12-11T07:14:17.361Z,-3.55
2022-12-11T07:15:17.344Z,-3.54
2022-12-11T07:16:17.394Z,-3.55
2022-12-11T07:17:17.330Z,-3.52
2022-12-11T07:18:17.317Z,-3.54
2022-12-11T07:19:17.563Z,-3.68
2022-12-11T07:20:17.294Z,-3.62
2022-12-11T07:21:17.297Z,-3.54
2022-12-11T07:22:17.263Z,-3.54
2022-12-11T07:23:17.243Z,-3.49
2022-12-11T07:24:17.234Z,-3.52
2022-12-11T07:25:17.219Z,-3.44
2022-12-11T07:26:17.211Z,-3.52
2022-12-11T07:27:17.204Z,-3.39
2022-12-11T07:28:17.393Z,-3.44
2022-12-11T07:29:17.172Z,-3.36
2022-12-11T07:30:17.167Z,-3.34
2022-12-11T07:31:17.209Z,-3.41
2022-12-11T07:32:17.269Z,-3.36
2022-12-11T07:33:17.119Z,-3.31
2022-12-11T07:34:17.111Z,-3.31
2022-12-11T07:35:17.089Z,-3.28
2022-12-11T07:36:17.081Z,-3.31
2022-12-11T07:37:17.101Z,-3.18
2022-12-11T07:38:17.049Z,-3.25
2022-12-11T07:39:17.069Z,-3.28
2022-12-11T07:40:17.028Z,-3.08
2022-12-11T07:41:17.010Z,-3.16
2022-12-11T07:42:17.000Z,-3.12
2022-12-11T07:43:16.988Z,-3.10
2022-12-11T07:44:16.982Z,-3.15
2022-12-11T07:45:16.964Z,-3.04
2022-12-11T07:46:17.010Z,-3.02
2022-12-11T07:47:16.941Z,-3.13
2022-12-11T07:48:16.928Z,-3.05
2022-12-11T07:49:16.918Z,-3.18
2022-12-11T07:50:16.899Z,-3.15
2022-12-11T07:51:16.886Z,-3.15
2022-12-11T07:52:16.875Z,-3.01
2022-12-11T07:53:16.885Z,-3.13
2022-12-11T07:54:16.924Z,-2.97
2022-12-11T07:55:16.839Z,-2.95
2022-12-11T07:56:16.855Z,-3.05
2022-12-11T07:57:16.809Z,-2.93
2022-12-11T07:58:16.803Z,-3.07
2022-12-11T07:59:16.796Z,-3.12
2022-12-11T08:00:16.866Z,-3.13
2022-12-11T08:01:16.823Z,-3.07
2022-12-11T08:02:16.835Z,-3.16
2022-12-11T08:03:16.734Z,-3.15
2022-12-11T08:04:16.725Z,-3.10
2022-12-11T08:05:16.725Z,-3.10
2022-12-11T08:06:16.699Z,-3.07
2022-12-11T08:07:16.675Z,-3.04
2022-12-11T08:08:16.731Z,-2.94
2022-12-11T08:09:21.044Z,-2.82
2022-12-11T08:10:16.656Z,-2.86
2022-12-11T08:11:16.669Z,-3.02
2022-12-11T08:12:16.622Z,-2.89
2022-12-11T08:13:16.605Z,-2.89
2022-12-11T08:14:16.592Z,-2.77
2022-12-11T08:15:16.585Z,-2.79
2022-12-11T08:16:16.647Z,-2.71
2022-12-11T08:17:16.553Z,-2.80
2022-12-11T08:18:16.547Z,-2.77
2022-12-11T08:19:16.524Z,-2.76
2022-12-11T08:20:16.518Z,-2.65
2022-12-11T08:21:16.499Z,-2.80
2022-12-11T08:22:16.488Z,-2.76
2022-12-11T08:23:16.475Z,-2.56
2022-12-11T08:24:16.502Z,-2.69
2022-12-11T08:25:16.480Z,-2.65
2022-12-11T08:26:16.431Z,-2.66
2022-12-11T08:27:16.416Z,-2.59
2022-12-11T08:28:16.404Z,-2.51
2022-12-11T08:29:16.389Z,-2.55
2022-12-11T08:30:16.420Z,-2.43
2022-12-11T08:31:16.415Z,-2.50
2022-12-11T08:32:16.354Z,-2.41
2022-12-11T08:33:16.339Z,-2.28
2022-12-11T08:34:16.330Z,-2.32
2022-12-11T08:35:16.320Z,-2.25
2022-12-11T08:36:16.305Z,-2.22
2022-12-11T08:37:16.292Z,-2.24
2022-12-11T08:38:19.631Z,-2.22
2022-12-11T08:39:16.260Z,-2.16
2022-12-11T08:40:16.324Z,-2.11
2022-12-11T08:41:16.256Z,-2.18
2022-12-11T08:42:16.225Z,-2.18
2022-12-11T08:43:16.201Z,-2.19
2022-12-11T08:44:17.052Z,-2.07
2022-12-11T08:45:16.180Z,-2.06
2022-12-11T08:46:16.379Z,-2.06
2022-12-11T08:47:16.149Z,-2.06
2022-12-11T08:48:16.141Z,-2.03
2022-12-11T08:49:16.124Z,-1.90
2022-12-11T08:50:16.293Z,-2.01
2022-12-11T08:51:16.104Z,-1.92
2022-12-11T08:52:16.132Z,-1.90
2022-12-11T08:53:16.077Z,-1.92
2022-12-11T08:54:16.066Z,-1.78
2022-12-11T08:55:16.052Z,-1.72
2022-12-11T08:56:16.256Z,-1.59
2022-12-11T08:57:16.040Z,-1.43
2022-12-11T08:58:16.008Z,-1.33
2022-12-11T08:59:15.994Z,-1.20
2022-12-11T09:00:16.027Z,-1.05
2022-12-11T09:01:16.028Z,-0.86
2022-12-11T09:02:15.985Z,-0.76
2022-12-11T09:03:15.941Z,-0.58
2022-12-11T09:04:15.982Z,-0.41
2022-12-11T09:05:15.919Z,-0.41
2022-12-11T09:06:15.933Z,-0.39
2022-12-11T09:07:15.891Z,-0.47
2022-12-11T09:08:15.912Z,-0.42
2022-12-11T09:09:15.861Z,-0.31
2022-12-11T09:10:15.851Z,-0.31
2022-12-11T09:11:15.842Z,-0.41
2022-12-11T09:12:15.825Z,-0.39
2022-12-11T09:13:15.841Z,-0.44
2022-12-11T09:14:15.795Z,-0.37
2022-12-11T09:15:15.782Z,-0.47
2022-12-11T09:16:15.814Z,-0.49
2022-12-11T09:17:15.752Z,-0.50
2022-12-11T09:18:15.744Z,-0.52
2022-12-11T09:19:15.735Z,-0.55
2022-12-11T09:20:16.070Z,-0.59
2022-12-11T09:21:15.702Z,-0.60
2022-12-11T09:22:15.693Z,-0.52
2022-12-11T09:23:15.683Z,-0.56
2022-12-11T09:24:15.739Z,-0.59
2022-12-11T09:25:15.663Z,-0.59
2022-12-11T09:26:15.632Z,-0.58
2022-12-11T09:27:15.631Z,-0.49
2022-12-11T09:28:15.606Z,-0.56
2022-12-11T09:29:15.619Z,-0.63
2022-12-11T09:30:15.584Z,-0.49
2022-12-11T09:31:15.656Z,-0.56
2022-12-11T09:32:15.556Z,-0.56
2022-12-11T09:33:15.550Z,-0.56
2022-12-11T09:34:15.569Z,-0.60
2022-12-11T09:35:15.525Z,-0.59
2022-12-11T09:36:15.505Z,-0.62
2022-12-11T09:37:15.492Z,-0.68
2022-12-11T09:38:15.491Z,-0.58
2022-12-11T09:39:15.469Z,-0.67
2022-12-11T09:40:15.447Z,-0.63
2022-12-11T09:41:15.551Z,-0.63
2022-12-11T09:42:15.431Z,-0.80
2022-12-11T09:43:15.413Z,-0.78
2022-12-11T09:44:15.402Z,-0.80
2022-12-11T09:45:15.412Z,-0.85
2022-12-11T09:46:15.435Z,-0.85
2022-12-11T09:47:15.359Z,-0.76
2022-12-11T09:48:15.349Z,-0.80
2022-12-11T09:49:15.337Z,-0.85
2022-12-11T09:50:15.339Z,-0.80
2022-12-11T09:51:15.308Z,-0.77
2022-12-11T09:52:15.290Z,-0.83
2022-12-11T09:53:15.284Z,-0.89
2022-12-11T09:54:15.262Z,-1.03
2022-12-11T09:55:15.252Z,-0.97
2022-12-11T09:56:15.242Z,-0.95
2022-12-11T09:57:15.242Z,-0.90
2022-12-11T09:58:15.214Z,-0.85
2022-12-11T09:59:15.204Z,-0.86
2022-12-11T10:00:15.189Z,-0.81
2022-12-11T10:01:15.366Z,-0.86
2022-12-11T10:02:15.211Z,-0.70
2022-12-11T10:03:15.142Z,-0.67
2022-12-11T10:04:15.155Z,-0.76
2022-12-11T10:05:15.121Z,-0.74
2022-12-11T10:06:15.110Z,-0.81
2022-12-11T10:07:15.095Z,-0.68
2022-12-11T10:08:15.122Z,-0.83
2022-12-11T10:09:15.068Z,-0.70
2022-12-11T10:10:15.053Z,-0.63
2022-12-11T10:11:15.040Z,-0.58
2022-12-11T10:12:15.037Z,-0.58
2022-12-11T10:13:15.021Z,-0.65
2022-12-11T10:14:15.004Z,-0.53
2022-12-11T10:15:15.255Z,-0.63
2022-12-11T10:16:15.016Z,-0.50
2022-12-11T10:17:14.980Z,-0.56
2022-12-11T10:18:14.947Z,-0.55
2022-12-11T10:19:14.933Z,-0.39
2022-12-11T10:20:14.923Z,-0.53
2022-12-11T10:21:15.111Z,-0.55
2022-12-11T10:22:14.896Z,-0.50
2022-12-11T10:23:14.881Z,-0.52
2022-12-11T10:24:24.383Z,-0.32
2022-12-11T10:25:15.887Z,-0.38
2022-12-11T10:26:14.844Z,-0.26
2022-12-11T10:27:14.829Z,-0.23
2022-12-11T10:28:14.821Z,-0.21
2022-12-11T10:29:14.823Z,-0.31
2022-12-11T10:30:14.814Z,-0.34
2022-12-11T10:31:14.846Z,-0.35
2022-12-11T10:32:14.760Z,-0.41
2022-12-11T10:33:14.818Z,-0.30
2022-12-11T10:34:14.740Z,-0.32
2022-12-11T10:35:14.737Z,-0.30
2022-12-11T10:36:14.716Z,-0.39
2022-12-11T10:37:14.707Z,-0.34
2022-12-11T10:38:14.689Z,-0.35
2022-12-11T10:39:14.679Z,-0.21
2022-12-11T10:40:14.669Z,-0.21
2022-12-11T10:41:14.651Z,-0.20
2022-12-11T10:42:14.634Z,-0.31
2022-12-11T10:43:14.626Z,-0.34
2022-12-11T10:44:14.609Z,-0.24
2022-12-11T10:45:14.598Z,-0.41
2022-12-11T10:46:14.617Z,-0.27
2022-12-11T10:47:14.571Z,-0.30
2022-12-11T10:48:14.560Z,-0.23
2022-12-11T10:49:14.572Z,-0.21
2022-12-11T10:50:14.585Z,-0.19
2022-12-11T10:51:14.518Z,-0.12
2022-12-11T10:52:14.507Z,0.10
2022-12-11T10:53:14.525Z,-0.16
2022-12-11T10:54:14.497Z,-0.05
2022-12-11T10:55:14.467Z,-0.13
2022-12-11T10:56:14.459Z,-0.01
2022-12-11T10:57:14.437Z,0.02
2022-12-11T10:58:14.494Z,0.07
2022-12-11T10:59:14.463Z,0.07
2022-12-11T11:00:14.404Z,0.10
2022-12-11T11:01:14.486Z,0.13
2022-12-11T11:02:14.374Z,0.16
2022-12-11T11:03:14.363Z,0.23
2022-12-11T11:04:14.346Z,0.33
2022-12-11T11:05:14.457Z,0.34
2022-12-11T11:06:14.330Z,0.31
2022-12-11T11:07:14.315Z,0.22
2022-12-11T11:08:14.390Z,0.35
2022-12-11T11:09:14.280Z,0.33
2022-12-11T11:10:14.265Z,0.33
2022-12-11T11:11:14.252Z,0.26
2022-12-11T11:12:14.344Z,0.23
2022-12-11T11:13:14.235Z,0.28
2022-12-11T11:14:14.227Z,0.43
2022-12-11T11:15:14.414Z,0.45
2022-12-11T11:16:14.259Z,0.43
2022-12-11T11:17:14.176Z,0.48
2022-12-11T11:18:14.163Z,0.37
2022-12-11T11:19:14.158Z,0.63
2022-12-11T11:20:14.137Z,0.64
2022-12-11T11:21:14.143Z,0.71
2022-12-11T11:22:14.098Z,0.82
2022-12-11T11:23:14.086Z,0.95
2022-12-11T11:24:14.076Z,1.06
2022-12-11T11:25:14.161Z,1.02
2022-12-11T11:26:14.053Z,1.06
2022-12-11T11:27:14.323Z,1.11
2022-12-11T11:28:14.026Z,0.90
2022-12-11T11:29:14.014Z,0.98
2022-12-11T11:30:14.093Z,0.89
2022-12-11T11:31:14.091Z,0.89
2022-12-11T11:32:13.977Z,0.86
2022-12-11T11:33:13.959Z,0.98
2022-12-11T11:34:13.951Z,0.98
2022-12-11T11:35:14.244Z,0.95
2022-12-11T11:36:13.914Z,1.10
2022-12-11T11:37:13.983Z,1.28
2022-12-11T11:38:13.896Z,1.24
2022-12-11T11:39:13.880Z,1.14
2022-12-11T11:40:13.984Z,0.98
2022-12-11T11:41:15.271Z,1.11
2022-12-11T11:42:13.846Z,1.14
2022-12-11T11:43:13.831Z,1.18
2022-12-11T11:44:13.813Z,1.25
2022-12-11T11:45:14.389Z,1.25
2022-12-11T11:46:13.855Z,1.35
2022-12-11T11:47:13.900Z,1.31
2022-12-11T11:48:13.862Z,1.31
2022-12-11T11:49:13.746Z,1.39
2022-12-11T11:50:13.820Z,1.38
2022-12-11T11:51:13.732Z,1.54
2022-12-11T11:52:13.784Z,1.35
2022-12-11T11:53:13.730Z,1.60
2022-12-11T11:54:13.681Z,1.50
2022-12-11T11:55:18.471Z,1.36
2022-12-11T11:56:14.681Z,1.47
2022-12-11T11:57:13.641Z,1.38
2022-12-11T11:58:13.785Z,1.36
2022-12-11T11:59:13.617Z,1.34
2022-12-11T12:00:13.700Z,1.21
2022-12-11T12:01:13.588Z,1.26
2022-12-11T12:02:13.573Z,1.42
2022-12-11T12:03:13.647Z,1.39
2022-12-11T12:04:13.586Z,1.42
2022-12-11T12:05:13.721Z,1.52
2022-12-11T12:06:15.111Z,1.56
2022-12-11T12:07:13.507Z,1.44
2022-12-11T12:08:13.551Z,1.50
2022-12-11T12:09:13.505Z,1.47
2022-12-11T12:10:13.623Z,1.56
2022-12-11T12:11:13.458Z,1.54
2022-12-11T12:12:13.439Z,1.67
2022-12-11T12:13:44.468Z,1.61
2022-12-11T12:14:43.569Z,1.70
2022-12-11T12:15:14.542Z,1.82
2022-12-11T12:16:43.776Z,1.53
2022-12-11T12:17:13.417Z,1.38
2022-12-11T12:18:13.365Z,1.42
2022-12-11T12:19:13.352Z,1.38
2022-12-11T12:20:13.336Z,1.42
2022-12-11T12:21:13.325Z,1.39
2022-12-11T12:22:13.309Z,1.61
2022-12-11T12:23:13.308Z,1.57
2022-12-11T12:24:13.284Z,1.74
2022-12-11T12:25:13.737Z,1.70
2022-12-11T12:26:13.251Z,1.54
2022-12-11T12:27:43.353Z,1.53
2022-12-11T12:28:14.252Z,1.35
2022-12-11T12:29:13.216Z,1.38
2022-12-11T12:30:17.367Z,1.29
2022-12-11T12:31:14.305Z,1.32
2022-12-11T12:32:13.181Z,1.32
2022-12-11T12:33:13.160Z,1.43
2022-12-11T12:34:13.148Z,1.52
2022-12-11T12:35:13.631Z,1.52
2022-12-11T12:36:13.116Z,1.47
2022-12-11T12:37:13.117Z,1.46
2022-12-11T12:38:13.096Z,1.47
2022-12-11T12:39:13.087Z,1.53
2022-12-11T12:40:13.073Z,1.46
2022-12-11T12:41:13.082Z,1.49
2022-12-11T12:42:13.039Z,1.47
2022-12-11T12:43:13.028Z,1.44
2022-12-11T12:44:13.058Z,1.39
2022-12-11T12:45:13.373Z,1.42
2022-12-11T12:46:13.060Z,1.43
2022-12-11T12:47:12.974Z,1.53
2022-12-11T12:48:12.962Z,1.47
2022-12-11T12:49:12.960Z,1.52
2022-12-11T12:50:12.942Z,1.44
2022-12-11T12:51:12.931Z,1.50
2022-12-11T12:52:12.977Z,1.52
2022-12-11T12:53:12.906Z,1.52
2022-12-11T12:54:13.022Z,1.56
2022-12-11T12:55:13.382Z,1.46
2022-12-11T12:56:12.859Z,1.64